Time;durP1;ratioP1;P1;durP2;ratioP2;P2;SDS_P1;SDS_P2;PMS_P1;PMS_P2;Temp;Humidity;BMP_temperature;BMP_pressure;BME280_temperature;BME280_humidity;BME280_pressure;Samples;Min_cycle;Max_cycle;Signal;HPM_P1;HPM_P2
2022/03/19 00:00:23;;;;;;;14.07;3.60;;;;;;;;;;4967955;28;20047;-80
2022/03/19 00:02:49;;;;;;;76.30;23.42;;;;;;;;;;4957254;28;20042;-80
2022/03/19 00:05:16;;;;;;;28.75;9.07;;;;;;;;;;4958487;28;20450;-79
2022/03/19 00:07:42;;;;;;;16.63;5.47;;;;;;;;;;4958366;28;20043;-79
2022/03/19 00:10:08;;;;;;;18.27;4.80;;;;;;;;;;4968066;28;20046;-79
2022/03/19 00:12:35;;;;;;;17.20;5.32;;;;;;;;;;4941961;28;20145;-80
2022/03/19 00:15:02;;;;;;;15.18;3.70;;;;;;;;;;4950140;28;20039;-80
2022/03/19 00:17:27;;;;;;;14.32;3.20;;;;;;;;;;4960011;28;20054;-80
2022/03/19 00:19:53;;;;;;;12.18;3.53;;;;;;;;;;4965349;28;20043;-80
2022/03/19 00:22:19;;;;;;;13.55;3.83;;;;;;;;;;4957286;28;20445;-80
2022/03/19 00:24:45;;;;;;;13.13;4.43;;;;;;;;;;4959076;28;20185;-81
2022/03/19 00:27:11;;;;;;;15.27;3.67;;;;;;;;;;4954557;28;20041;-80
2022/03/19 00:29:37;;;;;;;15.13;3.63;;;;;;;;;;4959742;28;20136;-80
2022/03/19 00:32:03;;;;;;;13.20;3.97;;;;;;;;;;4941997;28;20043;-80
2022/03/19 00:34:31;;;;;;;16.58;4.00;;;;;;;;;;4957882;28;20043;-80
2022/03/19 00:36:57;;;;;;;13.13;3.33;;;;;;;;;;4956392;28;20051;-80
2022/03/19 00:39:23;;;;;;;11.35;3.05;;;;;;;;;;4957386;28;20142;-80
2022/03/19 00:41:49;;;;;;;15.55;4.15;;;;;;;;;;4957382;28;20122;-80
2022/03/19 00:44:15;;;;;;;11.68;3.38;;;;;;;;;;4941271;28;20420;-81
2022/03/19 00:46:41;;;;;;;13.90;2.95;;;;;;;;;;4972891;28;20041;-80
2022/03/19 00:49:07;;;;;;;14.52;3.78;;;;;;;;;;4960647;28;20077;-80
2022/03/19 00:51:36;;;;;;;13.88;3.70;;;;;;;;;;4960156;28;20055;-80
2022/03/19 00:54:03;;;;;;;12.35;3.78;;;;;;;;;;4936767;28;20055;-80
2022/03/19 00:56:29;;;;;;;15.73;3.65;;;;;;;;;;4957745;28;20382;-80
2022/03/19 00:58:55;;;;;;;13.70;5.10;;;;;;;;;;4957306;28;20070;-80
2022/03/19 01:01:21;;;;;;;14.05;4.80;;;;;;;;;;4977603;28;20047;-81
2022/03/19 01:03:47;;;;;;;12.10;3.80;;;;;;;;;;4956675;28;20781;-80
2022/03/19 01:06:13;;;;;;;11.05;3.13;;;;;;;;;;4953224;28;20046;-80
2022/03/19 01:08:39;;;;;;;15.18;3.22;;;;;;;;;;4956818;28;20617;-80
2022/03/19 01:11:05;;;;;;;16.48;4.80;;;;;;;;;;4956962;28;20049;-80
2022/03/19 01:13:31;;;;;;;12.77;3.63;;;;;;;;;;4956807;28;20035;-80
2022/03/19 01:15:57;;;;;;;29.88;9.57;;;;;;;;;;4942871;28;20141;-80
2022/03/19 01:18:23;;;;;;;22.98;8.23;;;;;;;;;;4956815;28;20126;-80
2022/03/19 01:20:49;;;;;;;26.00;9.63;;;;;;;;;;4957331;28;20038;-80
2022/03/19 01:23:15;;;;;;;22.17;8.20;;;;;;;;;;4966261;28;20035;-80
2022/03/19 01:25:41;;;;;;;27.55;12.18;;;;;;;;;;4964513;28;20527;-80
2022/03/19 01:28:07;;;;;;;24.92;10.48;;;;;;;;;;4955270;28;20118;-80
2022/03/19 01:30:34;;;;;;;23.02;10.35;;;;;;;;;;4957832;28;20129;-80
2022/03/19 01:33:00;;;;;;;22.58;10.63;;;;;;;;;;4956207;28;20050;-80
2022/03/19 01:35:26;;;;;;;25.17;11.13;;;;;;;;;;4957723;28;20108;-81
2022/03/19 01:37:51;;;;;;;23.45;9.80;;;;;;;;;;4956791;28;20046;-80
2022/03/19 01:40:18;;;;;;;20.33;7.65;;;;;;;;;;4955744;28;20105;-80
2022/03/19 01:42:48;;;;;;;13.35;3.42;;;;;;;;;;4957192;28;20047;-80
2022/03/19 01:45:16;;;;;;;11.20;3.17;;;;;;;;;;4953545;28;20047;-80
2022/03/19 01:47:43;;;;;;;10.73;3.20;;;;;;;;;;4957226;28;20331;-80
2022/03/19 01:50:09;;;;;;;13.85;3.63;;;;;;;;;;4941843;28;20078;-80
2022/03/19 01:52:36;;;;;;;11.48;3.38;;;;;;;;;;4956733;28;20146;-80
2022/03/19 01:55:02;;;;;;;10.27;2.80;;;;;;;;;;4956564;28;20054;-80
2022/03/19 01:57:29;;;;;;;13.90;4.30;;;;;;;;;;4955555;28;20050;-80
2022/03/19 01:59:57;;;;;;;15.23;4.13;;;;;;;;;;4956181;28;20050;-80
2022/03/19 02:02:25;;;;;;;12.05;2.83;;;;;;;;;;4955103;28;20504;-79
2022/03/19 02:04:52;;;;;;;11.93;3.70;;;;;;;;;;4957720;28;20125;-81
2022/03/19 02:07:18;;;;;;;12.48;2.95;;;;;;;;;;4983763;23;20476;-82
2022/03/19 02:09:44;;;;;;;13.27;3.17;;;;;;;;;;4970187;28;20061;-82
2022/03/19 02:12:10;;;;;;;13.25;3.55;;;;;;;;;;4970085;28;20058;-82
2022/03/19 02:14:40;;;;;;;10.05;3.03;;;;;;;;;;4957433;28;20081;-82
2022/03/19 02:17:07;;;;;;;11.40;3.08;;;;;;;;;;4973678;28;20038;-83
2022/03/19 02:19:33;;;;;;;18.40;4.70;;;;;;;;;;4972165;28;20066;-82
2022/03/19 02:22:00;;;;;;;13.50;3.95;;;;;;;;;;4964646;28;20074;-82
2022/03/19 02:27:11;;;;;;;15.00;4.07;;;;;;;;;;4969453;28;20051;-82
2022/03/19 02:29:37;;;;;;;12.93;5.00;;;;;;;;;;4969405;28;20042;-82
2022/03/19 02:32:06;;;;;;;14.70;3.63;;;;;;;;;;4971858;28;20043;-82
2022/03/19 02:34:35;;;;;;;14.68;3.47;;;;;;;;;;4956753;28;20130;-82
2022/03/19 02:37:01;;;;;;;12.13;3.47;;;;;;;;;;4957243;28;20081;-82
2022/03/19 02:39:30;;;;;;;13.68;3.15;;;;;;;;;;4971646;28;20057;-82
2022/03/19 02:41:57;;;;;;;9.95;3.72;;;;;;;;;;4973633;28;20508;-82
2022/03/19 02:44:23;;;;;;;19.10;5.00;;;;;;;;;;4951457;29;20035;-82
2022/03/19 02:46:51;;;;;;;15.48;3.80;;;;;;;;;;4969948;28;20039;-82
2022/03/19 02:49:17;;;;;;;17.50;5.10;;;;;;;;;;4969462;28;20053;-82
2022/03/19 02:51:45;;;;;;;16.20;5.13;;;;;;;;;;4973367;28;20170;-82
2022/03/19 02:54:13;;;;;;;14.00;5.47;;;;;;;;;;4968369;28;20045;-82
2022/03/19 02:56:40;;;;;;;12.57;4.57;;;;;;;;;;4971463;28;20049;-83
2022/03/19 02:59:10;;;;;;;12.50;3.83;;;;;;;;;;4958360;28;20035;-83
2022/03/19 03:01:37;;;;;;;15.80;4.57;;;;;;;;;;4962513;28;20401;-82
2022/03/19 03:04:03;;;;;;;17.10;5.10;;;;;;;;;;4944205;29;20130;-82
2022/03/19 03:06:29;;;;;;;17.00;5.43;;;;;;;;;;4968686;28;20049;-82
2022/03/19 03:08:56;;;;;;;18.45;6.10;;;;;;;;;;4973172;28;20063;-83
2022/03/19 03:11:22;;;;;;;17.48;5.80;;;;;;;;;;4963533;28;20047;-83
2022/03/19 03:13:48;;;;;;;15.75;5.15;;;;;;;;;;4956603;28;20039;-83
2022/03/19 03:16:14;;;;;;;11.32;4.65;;;;;;;;;;4972214;28;20057;-83
2022/03/19 03:18:40;;;;;;;13.40;4.43;;;;;;;;;;4956696;28;20039;-83
2022/03/19 03:21:06;;;;;;;12.25;4.65;;;;;;;;;;4962005;28;20046;-83
2022/03/19 03:23:32;;;;;;;11.60;4.63;;;;;;;;;;4971448;28;20118;-82
2022/03/19 03:25:58;;;;;;;18.77;6.40;;;;;;;;;;4970081;28;20045;-82
2022/03/19 03:28:24;;;;;;;18.23;5.90;;;;;;;;;;4969246;28;20045;-82
2022/03/19 03:30:50;;;;;;;16.02;5.43;;;;;;;;;;4970268;28;20070;-83
2022/03/19 03:33:16;;;;;;;13.60;5.00;;;;;;;;;;4972159;28;20030;-82
2022/03/19 03:35:42;;;;;;;12.90;5.70;;;;;;;;;;4951801;28;20473;-82
2022/03/19 03:38:08;;;;;;;14.98;5.82;;;;;;;;;;4972511;28;20039;-82
2022/03/19 03:40:34;;;;;;;12.77;5.13;;;;;;;;;;4970944;28;20501;-82
2022/03/19 03:43:00;;;;;;;12.85;5.03;;;;;;;;;;4970390;28;20122;-82
2022/03/19 03:45:29;;;;;;;15.05;6.20;;;;;;;;;;4971337;28;20764;-82
2022/03/19 03:47:55;;;;;;;19.80;5.82;;;;;;;;;;4971388;28;20042;-82
2022/03/19 03:50:21;;;;;;;15.35;5.47;;;;;;;;;;4966388;28;20046;-82
2022/03/19 03:52:48;;;;;;;21.05;6.60;;;;;;;;;;4969483;28;20058;-82
2022/03/19 03:55:14;;;;;;;14.18;5.00;;;;;;;;;;4968348;28;20109;-82
2022/03/19 03:57:40;;;;;;;21.77;6.35;;;;;;;;;;4945067;28;20043;-82
2022/03/19 04:00:10;;;;;;;19.88;7.53;;;;;;;;;;4970650;28;20047;-82
2022/03/19 04:02:37;;;;;;;14.73;6.35;;;;;;;;;;4955088;28;20256;-82
2022/03/19 04:05:04;;;;;;;18.55;8.23;;;;;;;;;;4953069;28;20469;-82
2022/03/19 04:07:30;;;;;;;22.73;8.52;;;;;;;;;;4966971;28;20055;-82
2022/03/19 04:09:56;;;;;;;19.13;7.68;;;;;;;;;;4946524;28;20081;-82
2022/03/19 04:12:22;;;;;;;18.80;6.75;;;;;;;;;;4969618;28;20062;-82
2022/03/19 04:14:49;;;;;;;21.00;7.78;;;;;;;;;;4966661;28;20376;-82
2022/03/19 04:17:15;;;;;;;25.20;9.23;;;;;;;;;;4964279;28;20129;-82
2022/03/19 04:19:41;;;;;;;20.48;6.97;;;;;;;;;;4956601;28;20093;-82
2022/03/19 04:22:07;;;;;;;15.55;6.68;;;;;;;;;;4962579;28;20408;-82
2022/03/19 04:24:33;;;;;;;15.30;5.65;;;;;;;;;;4956725;28;20126;-82
2022/03/19 04:26:59;;;;;;;14.48;5.80;;;;;;;;;;4964096;28;20118;-82
2022/03/19 04:29:26;;;;;;;24.33;10.00;;;;;;;;;;4945348;28;20054;-83
2022/03/19 04:31:52;;;;;;;18.08;7.30;;;;;;;;;;4966334;28;20046;-83
2022/03/19 04:34:18;;;;;;;20.95;8.60;;;;;;;;;;4971966;28;20065;-82
2022/03/19 04:36:44;;;;;;;18.65;7.82;;;;;;;;;;4958036;28;20050;-82
2022/03/19 04:39:11;;;;;;;17.60;6.72;;;;;;;;;;4975108;28;20089;-83
2022/03/19 04:41:37;;;;;;;15.77;7.05;;;;;;;;;;4972083;28;20523;-83
2022/03/19 04:44:04;;;;;;;15.23;6.50;;;;;;;;;;4974844;28;20448;-82
2022/03/19 04:46:30;;;;;;;15.55;6.07;;;;;;;;;;4960632;28;20047;-82
2022/03/19 04:48:56;;;;;;;20.40;6.57;;;;;;;;;;4973390;28;20043;-82
2022/03/19 04:51:27;;;;;;;10.50;6.50;;;;;;;;;;4974489;28;20046;-83
2022/03/19 04:53:53;;;;;;;19.55;6.93;;;;;;;;;;4975224;28;20038;-83
2022/03/19 04:56:20;;;;;;;16.45;7.20;;;;;;;;;;4976133;28;20053;-83
2022/03/19 04:58:46;;;;;;;17.98;7.38;;;;;;;;;;4966679;28;20107;-82
2022/03/19 05:01:12;;;;;;;18.90;6.95;;;;;;;;;;4959492;28;20098;-83
2022/03/19 05:03:38;;;;;;;18.40;6.78;;;;;;;;;;4959145;28;20397;-83
2022/03/19 05:06:04;;;;;;;20.40;7.60;;;;;;;;;;4974233;28;20129;-83
2022/03/19 05:08:30;;;;;;;18.83;7.78;;;;;;;;;;4968000;28;20063;-83
2022/03/19 05:11:14;;;;;;;14.18;6.88;;;;;;;;;;4954984;28;20043;-83
2022/03/19 05:13:41;;;;;;;17.17;7.03;;;;;;;;;;4956451;28;20469;-83
2022/03/19 05:16:07;;;;;;;15.65;6.82;;;;;;;;;;4973579;28;20513;-83
2022/03/19 05:18:33;;;;;;;15.93;7.28;;;;;;;;;;4975099;28;20126;-82
2022/03/19 05:20:59;;;;;;;15.27;7.65;;;;;;;;;;4968331;28;20044;-83
2022/03/19 05:23:25;;;;;;;20.27;7.15;;;;;;;;;;4970012;28;20477;-83
2022/03/19 05:25:52;;;;;;;22.17;7.03;;;;;;;;;;4968532;28;20039;-83
2022/03/19 05:28:18;;;;;;;21.75;7.50;;;;;;;;;;4971467;28;20626;-83
2022/03/19 05:30:44;;;;;;;19.10;8.18;;;;;;;;;;4974265;28;20050;-83
2022/03/19 05:33:11;;;;;;;19.33;7.55;;;;;;;;;;4964918;28;20094;-84
2022/03/19 05:35:37;;;;;;;20.08;7.22;;;;;;;;;;4970714;28;20047;-83
2022/03/19 05:38:06;;;;;;;19.73;7.78;;;;;;;;;;4958751;28;20385;-84
2022/03/19 05:40:32;;;;;;;17.33;7.88;;;;;;;;;;4969618;28;20042;-84
2022/03/19 05:42:58;;;;;;;17.70;7.60;;;;;;;;;;4966781;28;20094;-84
2022/03/19 05:45:24;;;;;;;15.43;7.70;;;;;;;;;;4964411;28;20047;-82
2022/03/19 05:47:51;;;;;;;21.48;8.93;;;;;;;;;;4950109;28;20079;-84
2022/03/19 05:50:17;;;;;;;18.02;8.10;;;;;;;;;;4969078;28;20130;-83
2022/03/19 05:52:45;;;;;;;24.77;9.10;;;;;;;;;;4958091;28;20038;-83
2022/03/19 05:55:11;;;;;;;19.00;9.05;;;;;;;;;;4953018;28;20039;-83
2022/03/19 05:57:37;;;;;;;17.83;8.50;;;;;;;;;;4951516;28;20039;-84
2022/03/19 06:00:05;;;;;;;18.75;9.18;;;;;;;;;;4954911;28;20489;-84
2022/03/19 06:02:31;;;;;;;18.35;9.10;;;;;;;;;;4969855;28;20043;-83
2022/03/19 06:04:57;;;;;;;18.73;8.55;;;;;;;;;;4967763;28;20047;-83
2022/03/19 06:07:23;;;;;;;20.90;8.25;;;;;;;;;;4966911;28;20113;-84
2022/03/19 06:09:49;;;;;;;18.00;9.00;;;;;;;;;;4955812;28;20050;-84
2022/03/19 06:12:15;;;;;;;20.63;8.63;;;;;;;;;;4969826;28;20046;-84
2022/03/19 06:14:41;;;;;;;21.35;9.00;;;;;;;;;;4969320;28;20047;-82
2022/03/19 06:17:07;;;;;;;19.45;10.63;;;;;;;;;;4972972;28;20046;-84
2022/03/19 06:19:33;;;;;;;21.15;9.98;;;;;;;;;;4972913;28;20039;-84
2022/03/19 06:21:59;;;;;;;16.60;8.93;;;;;;;;;;4965170;28;20043;-84
2022/03/19 06:24:25;;;;;;;21.95;10.05;;;;;;;;;;4946856;28;20043;-84
2022/03/19 06:26:51;;;;;;;17.55;8.65;;;;;;;;;;4956117;28;20043;-85
2022/03/19 06:29:17;;;;;;;17.10;8.00;;;;;;;;;;4972725;28;20053;-84
2022/03/19 06:31:43;;;;;;;15.35;7.53;;;;;;;;;;4950259;28;20039;-83
2022/03/19 06:34:09;;;;;;;20.45;7.90;;;;;;;;;;4953960;28;20049;-84
2022/03/19 06:39:19;;;;;;;18.33;7.90;;;;;;;;;;4967685;28;20043;-83
2022/03/19 06:41:45;;;;;;;16.10;8.30;;;;;;;;;;4957385;28;20386;-84
2022/03/19 06:44:11;;;;;;;14.52;7.05;;;;;;;;;;4964772;28;20046;-84
2022/03/19 06:46:37;;;;;;;11.65;6.82;;;;;;;;;;4969592;28;20594;-84
2022/03/19 06:49:03;;;;;;;20.17;7.93;;;;;;;;;;4964493;28;20050;-85
2022/03/19 06:51:29;;;;;;;15.52;7.20;;;;;;;;;;4968292;28;20090;-84
2022/03/19 06:53:55;;;;;;;18.20;6.95;;;;;;;;;;4949955;28;20392;-85
2022/03/19 06:56:21;;;;;;;14.95;6.75;;;;;;;;;;4973587;28;20043;-85
2022/03/19 06:58:47;;;;;;;15.48;7.20;;;;;;;;;;4965074;28;20051;-85
2022/03/19 07:01:16;;;;;;;14.10;6.63;;;;;;;;;;4962277;28;20043;-85
2022/03/19 07:03:43;;;;;;;13.93;6.60;;;;;;;;;;4965569;28;20040;-85
2022/03/19 07:06:09;;;;;;;15.68;6.57;;;;;;;;;;4960006;28;20061;-84
2022/03/19 07:08:35;;;;;;;13.13;6.47;;;;;;;;;;4972945;28;20047;-85
2022/03/19 07:11:01;;;;;;;14.57;6.30;;;;;;;;;;4951357;28;20065;-84
2022/03/19 07:13:27;;;;;;;11.82;5.57;;;;;;;;;;4945455;28;20062;-84
2022/03/19 07:15:53;;;;;;;14.07;6.03;;;;;;;;;;4982007;28;20038;-83
2022/03/19 07:18:19;;;;;;;14.65;6.72;;;;;;;;;;4960572;28;20889;-85
2022/03/19 07:20:45;;;;;;;14.48;5.90;;;;;;;;;;4957462;28;20046;-85
2022/03/19 07:23:11;;;;;;;12.20;5.47;;;;;;;;;;4973343;28;20097;-83
2022/03/19 07:25:39;;;;;;;11.93;5.65;;;;;;;;;;4964739;28;20114;-84
2022/03/19 07:28:06;;;;;;;12.95;5.43;;;;;;;;;;4956807;28;20043;-84
2022/03/19 07:30:32;;;;;;;9.05;5.00;;;;;;;;;;4950463;28;20138;-83
2022/03/19 07:32:58;;;;;;;8.50;5.53;;;;;;;;;;4959257;28;20840;-84
2022/03/19 07:35:24;;;;;;;14.77;5.90;;;;;;;;;;4941524;28;20501;-82
2022/03/19 07:37:50;;;;;;;14.05;5.80;;;;;;;;;;4972188;28;20041;-81
2022/03/19 07:41:45;;;;;;;13.65;6.25;;;;;;;;;;4951946;28;20046;-81
2022/03/19 07:43:07;;;;;;;13.30;5.95;;;;;;;;;;4962634;28;20047;-80
2022/03/19 07:45:33;;;;;;;10.70;5.45;;;;;;;;;;4948201;28;20111;-80
2022/03/19 07:47:59;;;;;;;13.80;5.22;;;;;;;;;;4970302;28;20047;-80
2022/03/19 07:50:25;;;;;;;16.50;5.70;;;;;;;;;;4954392;28;20057;-80
2022/03/19 07:52:51;;;;;;;12.10;5.05;;;;;;;;;;4951291;28;20051;-81
2022/03/19 07:55:18;;;;;;;13.48;5.55;;;;;;;;;;4970189;28;20046;-82
2022/03/19 07:57:44;;;;;;;15.57;5.55;;;;;;;;;;4971095;28;20157;-82
2022/03/19 08:00:12;;;;;;;13.45;5.35;;;;;;;;;;4968734;28;20055;-80
2022/03/19 08:02:38;;;;;;;11.43;4.55;;;;;;;;;;4964640;28;20047;-80
2022/03/19 08:05:04;;;;;;;13.30;5.55;;;;;;;;;;4968979;28;20049;-80
2022/03/19 08:07:30;;;;;;;12.52;4.47;;;;;;;;;;4941284;29;20558;-81
2022/03/19 08:09:56;;;;;;;13.25;4.95;;;;;;;;;;4963278;28;20043;-80
2022/03/19 08:12:22;;;;;;;11.50;4.60;;;;;;;;;;4971895;28;20106;-80
2022/03/19 08:14:49;;;;;;;13.27;5.00;;;;;;;;;;4970169;28;20051;-81
2022/03/19 08:17:15;;;;;;;13.75;4.60;;;;;;;;;;4962742;28;20070;-81
2022/03/19 08:19:45;;;;;;;11.57;4.22;;;;;;;;;;4971932;28;20691;-81
2022/03/19 08:22:11;;;;;;;14.27;4.05;;;;;;;;;;4941174;29;20046;-81
2022/03/19 08:24:37;;;;;;;31.08;4.72;;;;;;;;;;4968004;28;20238;-80
2022/03/19 08:27:03;;;;;;;9.55;3.72;;;;;;;;;;4975281;28;20039;-80
2022/03/19 08:29:29;;;;;;;14.43;4.55;;;;;;;;;;4967775;28;20039;-80
2022/03/19 08:31:56;;;;;;;12.15;4.13;;;;;;;;;;4975630;28;20058;-81
2022/03/19 08:34:22;;;;;;;11.90;3.60;;;;;;;;;;4970899;28;20042;-81
2022/03/19 08:36:49;;;;;;;13.02;4.10;;;;;;;;;;4971465;28;20110;-81
2022/03/19 08:42:00;;;;;;;13.68;3.55;;;;;;;;;;4960166;28;20081;-81
2022/03/19 08:44:26;;;;;;;9.02;3.17;;;;;;;;;;4973853;28;20046;-80
2022/03/19 08:46:52;;;;;;;11.15;3.10;;;;;;;;;;4966967;28;20038;-81
2022/03/19 08:49:19;;;;;;;10.82;3.42;;;;;;;;;;4971931;28;20039;-79
2022/03/19 08:51:45;;;;;;;13.45;4.25;;;;;;;;;;4940270;29;20130;-79
2022/03/19 08:54:16;;;;;;;12.55;3.53;;;;;;;;;;4968519;28;20068;-79
2022/03/19 08:56:43;;;;;;;12.95;3.08;;;;;;;;;;4956872;28;20038;-80
2022/03/19 08:59:09;;;;;;;12.63;3.35;;;;;;;;;;4970285;28;20038;-80
2022/03/19 09:01:36;;;;;;;9.48;3.10;;;;;;;;;;4974088;28;20038;-80
2022/03/19 09:04:02;;;;;;;11.20;3.70;;;;;;;;;;4973355;28;20385;-80
2022/03/19 09:06:28;;;;;;;9.10;3.30;;;;;;;;;;4970725;28;20053;-80
2022/03/19 09:08:54;;;;;;;14.00;3.88;;;;;;;;;;4953127;28;20054;-80
2022/03/19 09:11:21;;;;;;;10.45;3.30;;;;;;;;;;4973850;28;20051;-80
2022/03/19 09:13:48;;;;;;;7.47;2.20;;;;;;;;;;4967788;28;20193;-80
2022/03/19 09:16:14;;;;;;;11.63;2.88;;;;;;;;;;4973645;28;20038;-80
2022/03/19 09:18:40;;;;;;;11.77;2.85;;;;;;;;;;4973972;28;20060;-80
2022/03/19 09:21:06;;;;;;;12.93;3.25;;;;;;;;;;4965394;28;20572;-80
2022/03/19 09:23:32;;;;;;;10.77;2.70;;;;;;;;;;4968742;28;20057;-80
2022/03/19 09:25:58;;;;;;;9.38;2.88;;;;;;;;;;4973837;28;20118;-80
2022/03/19 09:28:25;;;;;;;11.45;2.80;;;;;;;;;;4973779;28;20081;-80
2022/03/19 09:30:51;;;;;;;10.02;2.92;;;;;;;;;;4968561;28;20058;-80
2022/03/19 09:33:17;;;;;;;8.90;2.95;;;;;;;;;;4955245;28;20039;-80
2022/03/19 09:35:43;;;;;;;10.50;3.33;;;;;;;;;;4964487;28;20106;-80
2022/03/19 09:38:09;;;;;;;9.68;3.25;;;;;;;;;;4950565;28;20035;-81
2022/03/19 09:40:35;;;;;;;7.80;2.55;;;;;;;;;;4971735;28;20045;-80
2022/03/19 09:43:01;;;;;;;8.98;2.55;;;;;;;;;;4963838;28;20114;-80
2022/03/19 09:45:28;;;;;;;10.80;2.42;;;;;;;;;;4973157;28;20470;-81
2022/03/19 09:47:55;;;;;;;8.48;3.10;;;;;;;;;;4966894;28;20108;-80
2022/03/19 09:50:21;;;;;;;9.30;2.50;;;;;;;;;;4949342;28;20110;-80
2022/03/19 09:52:51;;;;;;;7.85;2.42;;;;;;;;;;4944013;28;20050;-81
2022/03/19 09:55:17;;;;;;;7.90;2.45;;;;;;;;;;4961639;28;20117;-81
2022/03/19 09:57:44;;;;;;;11.80;2.92;;;;;;;;;;4973099;28;20046;-80
2022/03/19 10:00:10;;;;;;;6.60;2.05;;;;;;;;;;4973328;28;20047;-80
2022/03/19 10:02:59;;;;;;;9.10;2.85;;;;;;;;;;4967827;28;20039;-80
2022/03/19 10:10:59;;;;;;;7.40;2.92;;;;;;;;;;4972136;28;20102;-80
2022/03/19 10:13:26;;;;;;;10.65;3.30;;;;;;;;;;4953898;28;20747;-80
2022/03/19 10:15:52;;;;;;;6.55;2.65;;;;;;;;;;4973115;28;20077;-80
2022/03/19 10:18:18;;;;;;;8.75;3.20;;;;;;;;;;4973115;28;20037;-80
2022/03/19 10:20:45;;;;;;;6.90;2.78;;;;;;;;;;4956921;28;20053;-80
2022/03/19 10:23:11;;;;;;;7.47;2.70;;;;;;;;;;4972359;28;20412;-80
2022/03/19 10:25:37;;;;;;;8.82;2.75;;;;;;;;;;4969463;28;20066;-80
2022/03/19 10:28:08;;;;;;;10.15;3.05;;;;;;;;;;4965086;28;20117;-79
2022/03/19 10:30:35;;;;;;;7.88;2.50;;;;;;;;;;4972802;28;20101;-79
2022/03/19 10:33:01;;;;;;;6.45;2.45;;;;;;;;;;4960058;28;20043;-79
2022/03/19 10:35:31;;;;;;;7.68;2.70;;;;;;;;;;4963136;28;20043;-79
2022/03/19 10:37:58;;;;;;;9.82;3.67;;;;;;;;;;4952393;28;20104;-80
2022/03/19 10:40:41;;;;;;;7.95;2.83;;;;;;;;;;4964563;28;20090;-79
2022/03/19 10:43:08;;;;;;;8.00;3.08;;;;;;;;;;4958835;28;20074;-79
2022/03/19 10:45:41;;;;;;;6.55;2.78;;;;;;;;;;4957622;28;20361;-79
2022/03/19 10:48:09;;;;;;;7.53;2.78;;;;;;;;;;4952487;28;20477;-79
2022/03/19 10:50:35;;;;;;;6.93;2.60;;;;;;;;;;4962575;28;20054;-80
2022/03/19 10:53:01;;;;;;;7.47;2.63;;;;;;;;;;4958179;28;20054;-79
2022/03/19 10:55:27;;;;;;;11.50;3.55;;;;;;;;;;4953792;28;20477;-80
2022/03/19 10:57:54;;;;;;;7.65;2.63;;;;;;;;;;4970002;28;20049;-79
2022/03/19 11:00:20;;;;;;;8.75;2.97;;;;;;;;;;4969910;28;20541;-79
2022/03/19 11:02:48;;;;;;;6.10;2.63;;;;;;;;;;4969186;28;20181;-79
2022/03/19 11:05:16;;;;;;;5.05;2.00;;;;;;;;;;4965983;28;20054;-79
2022/03/19 11:07:44;;;;;;;7.10;2.30;;;;;;;;;;4971402;28;20054;-79
2022/03/19 11:10:11;;;;;;;7.10;2.20;;;;;;;;;;4968174;28;20047;-79
2022/03/19 11:12:40;;;;;;;6.28;2.15;;;;;;;;;;4953848;28;20046;-79
2022/03/19 11:15:09;;;;;;;7.18;2.03;;;;;;;;;;4947005;28;20039;-79
2022/03/19 11:17:36;;;;;;;5.75;2.15;;;;;;;;;;4945574;28;20564;-80
2022/03/19 11:20:04;;;;;;;4.53;1.90;;;;;;;;;;4968403;28;20093;-80
2022/03/19 11:22:39;;;;;;;6.43;2.45;;;;;;;;;;4965180;28;20074;-80
2022/03/19 11:25:16;;;;;;;5.50;2.20;;;;;;;;;;4963309;28;20523;-80
2022/03/19 11:27:44;;;;;;;6.55;2.30;;;;;;;;;;4953069;28;20050;-79
2022/03/19 11:30:26;;;;;;;5.88;2.17;;;;;;;;;;4971383;28;20106;-80
2022/03/19 11:33:02;;;;;;;5.68;1.75;;;;;;;;;;4949539;29;20604;-79
2022/03/19 11:35:28;;;;;;;5.25;2.20;;;;;;;;;;4968701;28;20039;-80
2022/03/19 11:38:02;;;;;;;5.38;2.00;;;;;;;;;;4968089;28;20042;-80
2022/03/19 11:40:35;;;;;;;6.32;1.70;;;;;;;;;;4963925;28;20066;-80
2022/03/19 11:43:04;;;;;;;5.32;1.80;;;;;;;;;;4951136;28;20035;-78
2022/03/19 11:45:50;;;;;;;9.63;2.10;;;;;;;;;;4953226;28;20046;-80
2022/03/19 11:48:35;;;;;;;5.80;1.60;;;;;;;;;;4973265;28;20055;-80
2022/03/19 11:51:17;;;;;;;3.15;1.30;;;;;;;;;;4948343;28;20051;-80
2022/03/19 11:53:50;;;;;;;3.70;1.30;;;;;;;;;;4975809;28;20046;-80
2022/03/19 11:56:20;;;;;;;3.53;1.50;;;;;;;;;;4956365;28;20043;-80
2022/03/19 11:58:46;;;;;;;3.88;1.25;;;;;;;;;;4959395;28;20093;-80
2022/03/19 12:01:13;;;;;;;5.63;1.83;;;;;;;;;;4959270;28;20093;-80
2022/03/19 12:04:09;;;;;;;2.95;1.40;;;;;;;;;;4975448;28;20043;-80
2022/03/19 12:06:40;;;;;;;4.30;1.40;;;;;;;;;;4958779;28;21133;-80
2022/03/19 12:09:07;;;;;;;5.30;1.33;;;;;;;;;;4975141;28;20059;-80
2022/03/19 12:11:35;;;;;;;5.88;1.48;;;;;;;;;;4962376;28;20049;-80
2022/03/19 12:14:07;;;;;;;4.28;1.20;;;;;;;;;;4973942;28;20047;-80
2022/03/19 12:16:40;;;;;;;3.10;1.60;;;;;;;;;;4974357;28;20094;-80
2022/03/19 12:19:06;;;;;;;3.45;1.40;;;;;;;;;;4975134;28;20039;-79
2022/03/19 12:21:41;;;;;;;3.78;1.35;;;;;;;;;;4978238;28;20885;-78
2022/03/19 12:24:10;;;;;;;2.00;1.17;;;;;;;;;;4974641;28;20050;-78
2022/03/19 12:26:43;;;;;;;3.38;1.27;;;;;;;;;;4973637;28;20035;-78
2022/03/19 12:29:10;;;;;;;3.25;1.27;;;;;;;;;;4946988;28;20086;-78
2022/03/19 12:31:48;;;;;;;4.35;1.60;;;;;;;;;;4957904;28;20054;-78
2022/03/19 12:34:17;;;;;;;2.25;1.27;;;;;;;;;;4953335;28;20117;-78
2022/03/19 12:36:44;;;;;;;3.80;1.65;;;;;;;;;;4951454;29;20462;-78
2022/03/19 12:39:10;;;;;;;2.70;1.33;;;;;;;;;;4949123;28;20039;-78
2022/03/19 12:41:36;;;;;;;4.22;1.45;;;;;;;;;;4973184;28;20030;-78
2022/03/19 12:44:07;;;;;;;3.92;1.67;;;;;;;;;;4964849;28;20055;-78
2022/03/19 12:46:39;;;;;;;4.55;1.30;;;;;;;;;;4972154;28;20046;-78
2022/03/19 12:49:05;;;;;;;2.65;1.10;;;;;;;;;;4955655;28;20047;-78
2022/03/19 12:51:32;;;;;;;5.85;1.40;;;;;;;;;;4981096;23;20668;-80
2022/03/19 12:53:58;;;;;;;3.78;1.65;;;;;;;;;;4952899;28;20443;-80
2022/03/19 12:56:25;;;;;;;5.00;1.70;;;;;;;;;;4979319;28;20049;-81
2022/03/19 12:58:53;;;;;;;4.75;1.85;;;;;;;;;;4978643;28;20050;-80
2022/03/19 13:01:26;;;;;;;5.13;1.23;;;;;;;;;;4979263;28;20042;-80
2022/03/19 13:04:02;;;;;;;3.33;1.33;;;;;;;;;;4963106;28;20403;-80
2022/03/19 13:06:36;;;;;;;3.90;1.48;;;;;;;;;;4979059;28;20069;-81
2022/03/19 13:09:03;;;;;;;4.40;1.70;;;;;;;;;;4977838;28;20104;-80
2022/03/19 13:11:40;;;;;;;6.47;1.58;;;;;;;;;;4979268;28;20372;-81
2022/03/19 13:14:06;;;;;;;4.78;1.65;;;;;;;;;;4985483;28;20042;-80
2022/03/19 13:16:32;;;;;;;4.03;1.25;;;;;;;;;;4973236;28;20042;-80
2022/03/19 13:19:07;;;;;;;4.45;1.40;;;;;;;;;;4966554;28;20571;-80
2022/03/19 13:21:34;;;;;;;6.15;1.90;;;;;;;;;;4975484;28;20035;-80
2022/03/19 13:24:01;;;;;;;5.28;1.67;;;;;;;;;;4978878;28;20045;-80
2022/03/19 13:26:28;;;;;;;3.58;1.30;;;;;;;;;;4978478;28;21444;-80
2022/03/19 13:29:05;;;;;;;3.72;1.38;;;;;;;;;;4979088;28;20124;-80
2022/03/19 13:31:37;;;;;;;4.45;1.35;;;;;;;;;;4978530;28;20074;-80
2022/03/19 13:34:04;;;;;;;4.32;1.50;;;;;;;;;;4975076;28;20039;-80
2022/03/19 13:36:32;;;;;;;5.15;1.70;;;;;;;;;;4960924;28;20045;-80
2022/03/19 13:39:00;;;;;;;3.38;1.40;;;;;;;;;;4975448;28;20061;-80
2022/03/19 13:41:26;;;;;;;4.88;1.67;;;;;;;;;;4977135;28;20117;-80
2022/03/19 13:43:52;;;;;;;4.45;1.50;;;;;;;;;;4978441;28;20043;-80
2022/03/19 13:46:21;;;;;;;3.53;1.60;;;;;;;;;;4977983;28;20073;-80
2022/03/19 13:48:48;;;;;;;3.45;1.38;;;;;;;;;;4977951;28;20046;-79
2022/03/19 13:51:16;;;;;;;4.18;1.40;;;;;;;;;;4975879;28;20704;-80
2022/03/19 13:53:44;;;;;;;4.90;2.28;;;;;;;;;;4977974;28;20046;-80
2022/03/19 13:56:10;;;;;;;5.22;1.73;;;;;;;;;;4962245;28;20042;-79
2022/03/19 13:58:37;;;;;;;4.35;1.40;;;;;;;;;;4977949;28;20523;-79
2022/03/19 14:01:16;;;;;;;5.65;1.27;;;;;;;;;;4987743;28;20049;-79
2022/03/19 14:03:42;;;;;;;4.55;1.60;;;;;;;;;;4977630;28;20050;-79
2022/03/19 14:06:09;;;;;;;4.95;1.67;;;;;;;;;;4979438;28;20097;-80
2022/03/19 14:08:39;;;;;;;4.43;1.85;;;;;;;;;;4976004;28;20042;-80
2022/03/19 14:11:12;;;;;;;2.80;1.63;;;;;;;;;;4977054;28;20053;-80
2022/03/19 14:13:41;;;;;;;5.07;1.73;;;;;;;;;;4961531;28;20054;-80
2022/03/19 14:16:08;;;;;;;3.15;1.45;;;;;;;;;;4983952;28;20073;-80
2022/03/19 14:18:34;;;;;;;5.50;1.83;;;;;;;;;;4961378;28;20038;-80
2022/03/19 14:21:03;;;;;;;4.53;1.27;;;;;;;;;;4977339;28;20460;-80
2022/03/19 14:23:30;;;;;;;3.45;1.27;;;;;;;;;;4976516;28;20038;-80
2022/03/19 14:25:56;;;;;;;3.13;0.90;;;;;;;;;;4977014;28;20045;-79
2022/03/19 14:28:23;;;;;;;3.83;1.30;;;;;;;;;;4977193;28;20042;-80
2022/03/19 14:30:49;;;;;;;4.07;1.73;;;;;;;;;;4977079;28;20101;-80
2022/03/19 14:33:16;;;;;;;4.32;1.63;;;;;;;;;;4960741;28;20054;-80
2022/03/19 14:35:42;;;;;;;6.22;2.10;;;;;;;;;;4950325;28;20101;-79
2022/03/19 14:38:08;;;;;;;3.70;1.58;;;;;;;;;;4973101;28;20404;-79
2022/03/19 14:40:34;;;;;;;3.78;1.30;;;;;;;;;;4969965;28;20034;-79
2022/03/19 14:43:00;;;;;;;3.78;1.60;;;;;;;;;;4975851;28;20485;-80
2022/03/19 14:45:26;;;;;;;4.93;1.50;;;;;;;;;;4976768;28;20120;-80
2022/03/19 14:47:52;;;;;;;3.05;1.20;;;;;;;;;;4976717;28;20050;-79